createdAt,value
2022-09-09T00:01:51.173Z,8.34
2022-09-09T00:04:34.909Z,8.31
2022-09-09T00:07:19.964Z,8.29
2022-09-09T00:09:50.349Z,8.27
2022-09-09T00:13:01.562Z,8.27
2022-09-09T00:15:35.581Z,8.26
2022-09-09T00:18:15.910Z,8.24
2022-09-09T00:20:55.102Z,8.21
2022-09-09T00:23:28.981Z,8.18
2022-09-09T00:26:09.960Z,8.17
2022-09-09T00:28:49.829Z,8.15
2022-09-09T00:31:22.105Z,8.17
2022-09-09T00:33:51.646Z,8.14
2022-09-09T00:36:24.394Z,8.18
2022-09-09T00:38:58.627Z,8.17
2022-09-09T00:41:59.855Z,8.22
2022-09-09T00:44:26.726Z,8.21
2022-09-09T00:46:56.625Z,8.19
2022-09-09T00:49:47.648Z,8.18
2022-09-09T00:52:45.844Z,8.16
2022-09-09T00:55:28.931Z,8.14
2022-09-09T00:57:56.997Z,8.13
2022-09-09T01:00:36.609Z,8.11
2022-09-09T01:03:23.189Z,8.11
2022-09-09T01:06:14.707Z,8.11
2022-09-09T01:09:09.145Z,8.06
2022-09-09T01:12:11.332Z,8.04
2022-09-09T01:14:38.194Z,8.02
2022-09-09T01:17:12.345Z,8.00
2022-09-09T01:19:56.666Z,7.96
2022-09-09T01:23:05.087Z,7.97
2022-09-09T01:26:02.672Z,7.92
2022-09-09T01:28:31.102Z,7.94
2022-09-09T01:31:07.931Z,7.88
2022-09-09T01:33:41.711Z,7.94
2022-09-09T01:36:08.994Z,7.94
2022-09-09T01:38:43.387Z,7.93
2022-09-09T01:41:10.596Z,7.93
2022-09-09T01:43:45.717Z,7.88
2022-09-09T01:46:14.548Z,7.82
2022-09-09T01:48:43.566Z,7.69
2022-09-09T01:51:11.735Z,7.60
2022-09-09T01:53:41.985Z,7.53
2022-09-09T01:56:15.879Z,7.45
2022-09-09T01:58:48.762Z,7.38
2022-09-09T02:01:26.091Z,7.31
2022-09-09T02:03:56.957Z,7.24
2022-09-09T02:06:36.177Z,7.18
2022-09-09T02:09:15.955Z,7.03
2022-09-09T02:11:45.092Z,7.03
2022-09-09T02:14:28.255Z,7.03
2022-09-09T02:17:12.645Z,7.00
2022-09-09T02:20:12.845Z,7.05
2022-09-09T02:22:55.075Z,7.06
2022-09-09T02:25:27.159Z,7.10
2022-09-09T02:27:59.843Z,7.12
2022-09-09T02:30:30.816Z,7.14
2022-09-09T02:33:02.569Z,7.16
2022-09-09T02:35:52.519Z,7.21
2022-09-09T02:38:25.714Z,7.21
2022-09-09T02:40:59.876Z,7.21
2022-09-09T02:43:26.863Z,7.20
2022-09-09T02:45:56.879Z,7.20
2022-09-09T02:48:53.815Z,7.21
2022-09-09T02:51:30.772Z,7.20
2022-09-09T02:54:15.429Z,7.14
2022-09-09T02:56:55.551Z,7.11
2022-09-09T02:59:28.757Z,7.12
2022-09-09T03:01:56.454Z,7.13
2022-09-09T03:04:25.555Z,7.09
2022-09-09T03:06:53.085Z,6.98
2022-09-09T03:09:22.709Z,6.92
2022-09-09T03:11:51.223Z,6.88
2022-09-09T03:14:22.279Z,6.81
2022-09-09T03:16:50.636Z,6.75
2022-09-09T03:19:19.619Z,6.65
2022-09-09T03:21:50.338Z,6.46
2022-09-09T03:24:17.857Z,6.52
2022-09-09T03:26:48.142Z,6.52
2022-09-09T03:29:18.407Z,6.52
2022-09-09T03:31:46.425Z,6.49
2022-09-09T03:34:14.753Z,6.47
2022-09-09T03:36:42.347Z,6.46
2022-09-09T03:39:09.617Z,6.47
2022-09-09T03:41:38.373Z,6.45
2022-09-09T03:44:06.419Z,6.45
2022-09-09T03:46:39.347Z,6.44
2022-09-09T03:49:06.273Z,6.42
2022-09-09T03:51:36.983Z,6.46
2022-09-09T03:54:06.237Z,6.42
2022-09-09T03:56:33.276Z,6.46
2022-09-09T03:59:00.532Z,6.49
2022-09-09T04:01:28.317Z,6.50
2022-09-09T04:03:56.314Z,6.53
2022-09-09T04:06:23.236Z,6.55
2022-09-09T04:08:50.751Z,6.57
2022-09-09T04:11:20.999Z,6.60
2022-09-09T04:13:50.475Z,6.62
2022-09-09T04:16:19.001Z,6.65
2022-09-09T04:18:46.091Z,6.67
2022-09-09T04:21:15.152Z,6.70
2022-09-09T04:23:42.085Z,6.75
2022-09-09T04:26:10.349Z,6.78
2022-09-09T04:28:38.575Z,6.82
2022-09-09T04:31:18.448Z,6.86
2022-09-09T04:33:47.643Z,6.91
2022-09-09T04:36:15.321Z,6.95
2022-09-09T04:38:42.959Z,7.00
2022-09-09T04:41:12.078Z,7.06
2022-09-09T04:43:41.236Z,7.10
2022-09-09T04:46:10.030Z,7.17
2022-09-09T04:48:37.213Z,7.25
2022-09-09T04:51:07.879Z,7.35
2022-09-09T04:53:35.483Z,7.45
2022-09-09T04:56:14.438Z,7.72
2022-09-09T04:58:46.574Z,8.00
2022-09-09T05:01:20.663Z,9.68
2022-09-09T05:03:49.158Z,11.56
2022-09-09T05:06:22.429Z,13.03
2022-09-09T05:08:52.637Z,14.50
2022-09-09T05:11:26.897Z,15.64
2022-09-09T05:13:58.178Z,16.50
2022-09-09T05:16:25.887Z,17.29
2022-09-09T05:18:53.005Z,17.98
2022-09-09T05:21:22.511Z,18.53
2022-09-09T05:23:49.691Z,19.24
2022-09-09T05:26:18.389Z,19.63
2022-09-09T05:28:48.776Z,19.97
2022-09-09T05:31:18.188Z,20.54
2022-09-09T05:33:50.508Z,20.52
2022-09-09T05:36:21.177Z,20.79
2022-09-09T05:38:51.619Z,21.34
2022-09-09T05:41:21.068Z,21.90
2022-09-09T05:43:49.945Z,22.29
2022-09-09T05:46:23.245Z,22.95
2022-09-09T05:48:53.006Z,23.40
2022-09-09T05:51:27.681Z,23.59
2022-09-09T05:53:59.526Z,23.67
2022-09-09T05:56:30.517Z,24.02
2022-09-09T05:59:01.241Z,24.31
2022-09-09T06:01:32.409Z,24.68
2022-09-09T06:04:00.552Z,24.64
2022-09-09T06:06:37.936Z,24.62
2022-09-09T06:09:11.561Z,25.31
2022-09-09T06:11:41.754Z,25.27
2022-09-09T06:14:09.875Z,23.18
2022-09-09T06:16:43.441Z,23.32
2022-09-09T06:19:17.480Z,22.62
2022-09-09T06:21:45.968Z,23.06
2022-09-09T06:24:14.970Z,22.18
2022-09-09T06:26:42.595Z,23.60
2022-09-09T06:29:13.166Z,21.66
2022-09-09T06:31:42.515Z,21.32
2022-09-09T06:34:27.162Z,22.33
2022-09-09T06:36:58.856Z,22.12
2022-09-09T06:39:29.548Z,20.97
2022-09-09T06:41:56.801Z,19.96
2022-09-09T06:44:47.018Z,20.05
2022-09-09T06:47:22.328Z,22.55
2022-09-09T06:49:49.816Z,24.09
2022-09-09T06:52:18.515Z,23.32
2022-09-09T06:54:46.407Z,23.96
2022-09-09T06:57:35.851Z,24.51
2022-09-09T07:00:03.346Z,24.93
2022-09-09T07:02:33.076Z,23.87
2022-09-09T07:05:01.130Z,24.40
2022-09-09T07:07:28.467Z,24.08
2022-09-09T07:09:56.501Z,24.14
2022-09-09T07:12:23.418Z,24.91
2022-09-09T07:14:56.332Z,25.30
2022-09-09T07:17:23.548Z,26.27
2022-09-09T07:19:50.650Z,27.05
2022-09-09T07:22:18.052Z,27.97
2022-09-09T07:24:46.201Z,28.26
2022-09-09T07:27:14.416Z,28.19
2022-09-09T07:29:42.007Z,26.54
2022-09-09T07:32:09.491Z,24.83
2022-09-09T07:34:38.290Z,26.88
2022-09-09T07:37:06.423Z,28.06
2022-09-09T07:39:34.249Z,29.06
2022-09-09T07:42:02.125Z,29.29
2022-09-09T07:44:29.605Z,27.36
2022-09-09T07:47:07.211Z,26.23
2022-09-09T07:49:38.885Z,24.67
2022-09-09T07:54:42.840Z,22.92
2022-09-09T07:57:11.118Z,22.39
2022-09-09T07:59:38.729Z,21.94
2022-09-09T08:02:06.020Z,21.23
2022-09-09T08:04:35.818Z,20.31
2022-09-09T08:07:04.500Z,19.85
2022-09-09T08:09:37.442Z,19.53
2022-09-09T08:12:11.873Z,19.42
2022-09-09T08:14:39.161Z,19.12
2022-09-09T08:17:06.132Z,18.84
2022-09-09T08:19:37.061Z,19.95
2022-09-09T08:22:09.647Z,21.96
2022-09-09T08:24:40.401Z,24.64
2022-09-09T08:27:08.216Z,26.55
2022-09-09T08:29:35.685Z,27.24
2022-09-09T08:32:03.085Z,26.37
2022-09-09T08:34:31.531Z,26.28
2022-09-09T08:37:01.902Z,27.78
2022-09-09T08:39:35.129Z,27.61
2022-09-09T08:42:20.246Z,25.93
2022-09-09T08:45:20.979Z,23.92
2022-09-09T08:48:18.869Z,22.53
2022-09-09T08:50:50.017Z,21.46
2022-09-09T08:53:35.292Z,20.57
2022-09-09T08:56:10.802Z,19.80
2022-09-09T08:58:50.905Z,23.08
2022-09-09T09:01:24.735Z,25.24
2022-09-09T09:04:33.393Z,24.08
2022-09-09T09:07:32.129Z,22.51
2022-09-09T09:10:37.757Z,21.61
2022-09-09T09:13:02.761Z,20.66
2022-09-09T09:15:42.500Z,22.87
2022-09-09T09:18:14.244Z,23.90
2022-09-09T09:20:53.053Z,24.50
2022-09-09T09:23:25.130Z,25.46
2022-09-09T09:26:00.870Z,24.39
2022-09-09T09:28:32.887Z,24.25
2022-09-09T09:31:10.958Z,24.55
2022-09-09T09:33:54.371Z,24.52
2022-09-09T09:36:35.254Z,24.66
2022-09-09T09:41:55.589Z,27.27
2022-09-09T09:44:28.904Z,26.11
2022-09-09T09:47:17.519Z,23.91
2022-09-09T09:50:03.724Z,22.64
2022-09-09T09:52:37.856Z,20.49
2022-09-09T09:55:15.341Z,19.74
2022-09-09T09:57:45.795Z,19.44
2022-09-09T10:00:23.088Z,20.22
2022-09-09T10:03:01.084Z,21.76
2022-09-09T10:05:36.012Z,22.67
2022-09-09T10:08:17.721Z,24.84
2022-09-09T10:10:52.935Z,26.74
2022-09-09T10:13:28.065Z,24.64
2022-09-09T10:16:09.591Z,23.20
2022-09-09T10:18:45.632Z,21.95
2022-09-09T10:21:24.732Z,21.81
2022-09-09T10:24:19.947Z,24.37
2022-09-09T10:26:54.030Z,26.22
2022-09-09T10:29:32.249Z,27.92
2022-09-09T10:32:14.366Z,29.20
2022-09-09T10:34:51.201Z,28.06
2022-09-09T10:37:26.582Z,26.49
2022-09-09T10:40:21.159Z,27.59
2022-09-09T10:42:48.234Z,29.12
2022-09-09T10:45:46.966Z,29.28
2022-09-09T10:48:21.923Z,27.09
2022-09-09T10:51:21.037Z,25.07
2022-09-09T10:54:04.162Z,26.61
2022-09-09T10:56:31.911Z,28.24
2022-09-09T10:59:13.178Z,29.38
2022-09-09T11:01:53.412Z,29.51
2022-09-09T11:04:46.204Z,27.31
2022-09-09T11:07:25.907Z,25.65
2022-09-09T11:10:01.361Z,22.95
2022-09-09T11:12:32.156Z,22.32
2022-09-09T11:15:06.975Z,21.62
2022-09-09T11:17:50.513Z,21.86
2022-09-09T11:20:17.562Z,21.98
2022-09-09T11:22:55.705Z,23.86
2022-09-09T11:25:43.589Z,25.08
2022-09-09T11:28:28.827Z,25.48
2022-09-09T11:31:21.919Z,24.11
2022-09-09T11:33:59.205Z,22.49
2022-09-09T11:36:47.511Z,23.01
2022-09-09T11:39:32.601Z,23.07
2022-09-09T11:42:25.729Z,21.86
2022-09-09T11:44:54.924Z,20.96
2022-09-09T11:47:31.415Z,20.11
2022-09-09T11:50:16.558Z,19.27
2022-09-09T11:52:49.482Z,18.86
2022-09-09T11:55:27.022Z,18.62
2022-09-09T11:58:07.482Z,18.35
2022-09-09T12:00:48.184Z,18.23
2022-09-09T12:03:46.042Z,18.04
2022-09-09T12:06:35.962Z,17.33
2022-09-09T12:09:27.175Z,16.63
2022-09-09T12:12:06.028Z,16.56
2022-09-09T12:14:38.220Z,16.39
2022-09-09T12:17:20.675Z,16.72
2022-09-09T12:19:49.060Z,17.23
2022-09-09T12:22:41.746Z,17.81
2022-09-09T12:25:34.737Z,18.26
2022-09-09T12:28:05.330Z,18.35
2022-09-09T12:30:49.775Z,18.70
2022-09-09T12:33:20.182Z,18.61
2022-09-09T12:35:55.388Z,18.36
2022-09-09T12:38:35.334Z,18.22
2022-09-09T12:41:02.495Z,18.08
2022-09-09T12:43:30.238Z,18.04
2022-09-09T12:46:05.309Z,17.96
2022-09-09T12:48:41.486Z,17.55
2022-09-09T12:51:28.945Z,17.05
2022-09-09T12:53:57.257Z,16.90
2022-09-09T12:56:28.306Z,16.65
2022-09-09T12:58:57.634Z,16.49
2022-09-09T13:01:27.138Z,16.20
2022-09-09T13:03:54.621Z,15.91
2022-09-09T13:06:29.360Z,15.80
2022-09-09T13:09:02.205Z,15.69
2022-09-09T13:11:48.421Z,15.49
2022-09-09T13:14:27.548Z,15.27
2022-09-09T13:17:00.570Z,15.25
2022-09-09T13:19:32.792Z,15.09
2022-09-09T13:21:59.798Z,14.97
2022-09-09T13:24:35.878Z,15.02
2022-09-09T13:27:06.083Z,14.88
2022-09-09T13:29:33.690Z,14.77
2022-09-09T13:32:16.978Z,14.68
2022-09-09T13:34:55.925Z,14.58
2022-09-09T13:37:43.217Z,14.67
2022-09-09T13:40:23.049Z,14.62
2022-09-09T13:42:55.388Z,14.50
2022-09-09T13:45:27.791Z,14.40
2022-09-09T13:47:56.636Z,14.34
2022-09-09T13:50:27.799Z,14.24
2022-09-09T13:52:57.099Z,14.24
2022-09-09T13:55:25.975Z,14.13
2022-09-09T13:58:04.507Z,14.08
2022-09-09T14:00:33.628Z,14.06
2022-09-09T14:03:03.800Z,14.02
2022-09-09T14:05:33.922Z,13.94
2022-09-09T14:08:04.138Z,13.88
2022-09-09T14:10:31.496Z,13.74
2022-09-09T14:12:58.485Z,13.62
2022-09-09T14:15:25.396Z,13.50
2022-09-09T14:17:53.402Z,13.43
2022-09-09T14:20:20.437Z,13.33
2022-09-09T14:22:47.642Z,13.23
2022-09-09T14:25:14.691Z,13.19
2022-09-09T14:27:42.056Z,13.13
2022-09-09T14:30:10.577Z,13.10
2022-09-09T14:32:37.487Z,13.01
2022-09-09T14:35:05.244Z,12.87
2022-09-09T14:37:32.375Z,12.84
2022-09-09T14:39:59.588Z,12.83
2022-09-09T14:42:27.793Z,12.79
2022-09-09T14:44:54.817Z,12.79
2022-09-09T14:47:21.814Z,12.74
2022-09-09T14:49:50.613Z,12.73
2022-09-09T14:52:17.716Z,12.70
2022-09-09T14:54:44.682Z,12.64
2022-09-09T14:57:11.714Z,12.59
2022-09-09T14:59:38.640Z,12.54
2022-09-09T15:02:06.360Z,12.44
2022-09-09T15:04:33.417Z,12.42
2022-09-09T15:07:00.457Z,12.38
2022-09-09T15:09:27.485Z,12.34
2022-09-09T15:11:54.436Z,12.29
2022-09-09T15:14:22.678Z,12.29
2022-09-09T15:16:52.445Z,12.23
2022-09-09T15:19:19.601Z,12.22
2022-09-09T15:21:46.535Z,12.19
2022-09-09T15:24:14.836Z,12.16
2022-09-09T15:26:41.856Z,12.09
2022-09-09T15:29:09.311Z,12.03
2022-09-09T15:31:37.266Z,11.97
2022-09-09T15:34:06.804Z,11.90
2022-09-09T15:36:41.946Z,11.86
2022-09-09T15:39:13.872Z,11.81
2022-09-09T15:41:41.600Z,11.75
2022-09-09T15:44:10.492Z,11.71
2022-09-09T15:46:43.012Z,11.64
2022-09-09T15:49:14.947Z,11.56
2022-09-09T15:51:45.121Z,11.44
2022-09-09T15:54:14.590Z,11.44
2022-09-09T15:56:42.026Z,11.37
2022-09-09T15:59:09.272Z,11.31
2022-09-09T16:01:36.678Z,11.25
2022-09-09T16:04:05.007Z,11.19
2022-09-09T16:06:32.326Z,11.13
2022-09-09T16:09:02.031Z,11.06
2022-09-09T16:11:32.295Z,11.01
2022-09-09T16:14:00.470Z,10.94
2022-09-09T16:16:29.627Z,10.85
2022-09-09T16:19:02.502Z,10.81
2022-09-09T16:21:32.712Z,10.76
2022-09-09T16:24:02.002Z,10.70
2022-09-09T16:26:31.766Z,10.66
2022-09-09T16:29:00.647Z,10.57
2022-09-09T16:31:29.091Z,10.52
2022-09-09T16:33:56.564Z,10.46
2022-09-09T16:36:25.860Z,10.42
2022-09-09T16:38:58.557Z,10.36
2022-09-09T16:41:27.732Z,10.31
2022-09-09T16:44:00.237Z,10.27
2022-09-09T16:46:29.405Z,10.22
2022-09-09T16:49:00.799Z,10.17
2022-09-09T16:51:30.275Z,10.13
2022-09-09T16:53:59.843Z,10.09
2022-09-09T16:56:28.939Z,10.04
2022-09-09T16:58:58.686Z,10.00
2022-09-09T17:01:32.589Z,9.97
2022-09-09T17:04:02.186Z,9.92
2022-09-09T17:06:30.845Z,9.90
2022-09-09T17:08:59.697Z,9.84
2022-09-09T17:11:27.235Z,9.82
2022-09-09T17:13:55.707Z,9.78
2022-09-09T17:16:24.976Z,9.76
2022-09-09T17:18:52.608Z,9.71
2022-09-09T17:21:22.141Z,9.66
2022-09-09T17:23:49.331Z,9.60
2022-09-09T17:26:18.706Z,9.55
2022-09-09T17:28:46.731Z,9.50
2022-09-09T17:31:16.539Z,9.45
2022-09-09T17:33:47.264Z,9.40
2022-09-09T17:36:18.068Z,9.36
2022-09-09T17:38:45.867Z,9.31
2022-09-09T17:41:23.501Z,9.26
2022-09-09T17:43:51.300Z,9.18
2022-09-09T17:46:24.094Z,9.17
2022-09-09T17:48:54.818Z,9.14
2022-09-09T17:51:25.717Z,9.11
2022-09-09T17:53:55.887Z,9.08
2022-09-09T17:56:25.102Z,9.03
2022-09-09T17:58:53.908Z,8.99
2022-09-09T18:01:23.855Z,8.96
2022-09-09T18:03:51.865Z,8.90
2022-09-09T18:06:25.023Z,8.88
2022-09-09T18:08:55.413Z,8.84
2022-09-09T18:11:26.346Z,8.81
2022-09-09T18:14:00.663Z,8.79
2022-09-09T18:16:29.815Z,8.75
2022-09-09T18:19:03.505Z,8.71
2022-09-09T18:21:35.184Z,8.67
2022-09-09T18:24:06.211Z,8.64
2022-09-09T18:26:34.381Z,8.60
2022-09-09T18:29:05.953Z,8.58
2022-09-09T18:31:34.452Z,8.53
2022-09-09T18:34:03.965Z,8.49
2022-09-09T18:36:34.880Z,8.47
2022-09-09T18:39:03.776Z,8.43
2022-09-09T18:41:37.345Z,8.40
2022-09-09T18:44:11.189Z,8.36
2022-09-09T18:46:40.002Z,8.31
2022-09-09T18:49:07.905Z,8.30
2022-09-09T18:51:37.245Z,8.27
2022-09-09T18:54:12.880Z,8.24
2022-09-09T18:56:41.007Z,8.21
2022-09-09T18:59:10.887Z,8.19
2022-09-09T19:01:37.946Z,8.13
2022-09-09T19:04:06.285Z,8.10
2022-09-09T19:06:36.684Z,8.09
2022-09-09T19:09:05.024Z,8.06
2022-09-09T19:11:33.722Z,8.02
2022-09-09T19:14:05.087Z,7.95
2022-09-09T19:16:34.456Z,7.97
2022-09-09T19:19:04.714Z,7.93
2022-09-09T19:21:42.223Z,7.92
2022-09-09T19:24:16.617Z,7.87
2022-09-09T19:26:47.512Z,7.85
2022-09-09T19:29:21.027Z,7.80
2022-09-09T19:32:18.698Z,7.78
2022-09-09T19:34:36.514Z,7.73
2022-09-09T19:37:03.489Z,7.70
2022-09-09T19:39:30.858Z,7.68
2022-09-09T19:41:57.755Z,7.64
2022-09-09T19:44:24.677Z,7.58
2022-09-09T19:46:51.570Z,7.57
2022-09-09T19:49:18.554Z,7.52
2022-09-09T19:51:46.939Z,7.52
2022-09-09T19:54:16.729Z,7.49
2022-09-09T19:56:44.368Z,7.45
2022-09-09T19:59:13.290Z,7.40
2022-09-09T20:01:44.707Z,7.36
2022-09-09T20:04:12.975Z,7.35
2022-09-09T20:06:42.098Z,7.32
2022-09-09T20:09:14.610Z,7.29
2022-09-09T20:11:43.258Z,7.27
2022-09-09T20:14:11.843Z,7.20
2022-09-09T20:16:39.333Z,7.20
2022-09-09T20:19:07.794Z,7.18
2022-09-09T20:21:44.017Z,7.14
2022-09-09T20:24:18.824Z,7.09
2022-09-09T20:26:48.236Z,7.08
2022-09-09T20:29:18.168Z,7.07
2022-09-09T20:31:45.790Z,7.04
2022-09-09T20:34:15.717Z,7.02
2022-09-09T20:36:43.380Z,7.00
2022-09-09T20:39:15.751Z,6.99
2022-09-09T20:41:46.792Z,6.98
2022-09-09T20:44:16.966Z,6.97
2022-09-09T20:46:49.376Z,6.95
2022-09-09T20:49:19.247Z,6.91
2022-09-09T20:51:48.146Z,6.88
2022-09-09T20:54:21.430Z,6.87
2022-09-09T20:56:50.415Z,6.85
2022-09-09T20:59:20.564Z,6.84
2022-09-09T21:01:48.129Z,6.82
2022-09-09T21:04:17.523Z,6.79
2022-09-09T21:06:45.291Z,6.78
2022-09-09T21:09:12.732Z,6.76
2022-09-09T21:11:40.339Z,6.75
2022-09-09T21:14:07.302Z,6.71
2022-09-09T21:16:34.517Z,6.69
2022-09-09T21:19:01.539Z,6.67
2022-09-09T21:21:28.720Z,6.65
2022-09-09T21:23:57.493Z,6.63
2022-09-09T21:26:25.684Z,6.60
2022-09-09T21:28:53.718Z,6.57
2022-09-09T21:31:26.989Z,6.52
2022-09-09T21:33:54.346Z,6.48
2022-09-09T21:36:21.234Z,6.47
2022-09-09T21:38:48.173Z,6.43
2022-09-09T21:41:16.759Z,6.37
2022-09-09T21:43:45.586Z,6.38
2022-09-09T21:46:15.634Z,6.35
2022-09-09T21:48:42.837Z,6.26
2022-09-09T21:51:12.382Z,6.25
2022-09-09T21:53:39.822Z,6.23
2022-09-09T21:56:09.933Z,6.22
2022-09-09T21:58:37.385Z,6.19
2022-09-09T22:01:14.901Z,6.16
2022-09-09T22:03:42.828Z,6.13
2022-09-09T22:06:13.006Z,6.12
2022-09-09T22:08:40.261Z,6.09
2022-09-09T22:11:16.757Z,6.08
2022-09-09T22:13:46.186Z,6.06
2022-09-09T22:16:16.911Z,6.03
2022-09-09T22:18:44.638Z,6.02
2022-09-09T22:21:14.982Z,5.98
2022-09-09T22:23:42.022Z,5.95
2022-09-09T22:26:09.814Z,5.95
2022-09-09T22:28:38.665Z,5.95
2022-09-09T22:31:06.439Z,5.92
2022-09-09T22:33:33.901Z,5.89
2022-09-09T22:36:01.002Z,5.86
2022-09-09T22:38:27.942Z,5.87
2022-09-09T22:40:54.966Z,5.84
2022-09-09T22:43:22.695Z,5.80
2022-09-09T22:45:51.083Z,5.78
2022-09-09T22:48:18.826Z,5.75
2022-09-09T22:50:47.085Z,5.73
2022-09-09T22:53:15.976Z,5.74
2022-09-09T22:55:43.763Z,5.75
2022-09-09T22:58:11.054Z,5.72
2022-09-09T23:00:40.947Z,5.72
2022-09-09T23:03:08.013Z,5.70
2022-09-09T23:05:36.853Z,5.68
2022-09-09T23:08:03.789Z,5.67
2022-09-09T23:10:33.213Z,5.64
2022-09-09T23:13:00.493Z,5.62
2022-09-09T23:15:29.416Z,5.60
2022-09-09T23:17:56.275Z,5.59
2022-09-09T23:20:24.322Z,5.58
2022-09-09T23:22:51.497Z,5.57
2022-09-09T23:25:18.497Z,5.56
2022-09-09T23:27:45.612Z,5.52
2022-09-09T23:30:12.966Z,5.52
2022-09-09T23:32:39.849Z,5.50
2022-09-09T23:35:07.631Z,5.47
2022-09-09T23:37:35.042Z,5.46
2022-09-09T23:40:02.212Z,5.41
2022-09-09T23:42:32.972Z,5.40
2022-09-09T23:45:00.027Z,5.36
2022-09-09T23:47:27.819Z,5.38
2022-09-09T23:49:54.737Z,5.33
2022-09-09T23:52:22.173Z,5.34
2022-09-09T23:54:49.847Z,5.34
2022-09-09T23:57:16.706Z,5.33
2022-09-09T23:59:43.624Z,5.30
